Alvada, Ohio
Current Conditions -  °F | °C
As of 10:53 PM on Wednesday 28 Jan 2015 (Local Time) from KFDY Reporting Station
Clear Clear  
Wind Chill: 13°   Ceiling: Unl
Heat Index: 25°   Visibility: 10mi
Dew Point: 14°   Wind: 14mph
Humidity: 63%   Direction: 140°SE
Pressure: 30.12"   Gusts: NA
Location:  41.05°N, 83.4°W
Report Text: KFDY 290353Z AUTO 14012KT 10SM CLR M04/M10 A3012 RMK AO2 SLP209 T10391100
Loading
Personal Weather Stations






























Interactive Weather Map New forecast layout! Learn more

10-Day Weather Forecast

Advertisements
Track Severe Weather on mobile